sensor_id;sensor_type;location;lat;lon;timestamp;P1;durP1;ratioP1;P2;durP2;ratioP2
673;SDS011;319;48.764;9.174;2022-12-29T00:01:23;7.80;;;7.60;;
673;SDS011;319;48.764;9.174;2022-12-29T00:03:50;7.77;;;7.57;;
673;SDS011;319;48.764;9.174;2022-12-29T00:06:18;8.10;;;7.90;;
673;SDS011;319;48.764;9.174;2022-12-29T00:08:45;10.87;;;10.57;;
673;SDS011;319;48.764;9.174;2022-12-29T00:11:13;10.10;;;9.80;;
673;SDS011;319;48.764;9.174;2022-12-29T00:13:41;7.50;;;7.30;;
673;SDS011;319;48.764;9.174;2022-12-29T00:16:26;7.40;;;7.20;;
673;SDS011;319;48.764;9.174;2022-12-29T00:18:54;7.50;;;7.30;;
673;SDS011;319;48.764;9.174;2022-12-29T00:21:25;8.37;;;8.17;;
673;SDS011;319;48.764;9.174;2022-12-29T00:24:12;8.57;;;8.37;;
673;SDS011;319;48.764;9.174;2022-12-29T00:26:58;7.93;;;7.73;;
673;SDS011;319;48.764;9.174;2022-12-29T00:29:53;8.30;;;8.10;;
673;SDS011;319;48.764;9.174;2022-12-29T00:32:37;8.30;;;8.10;;
673;SDS011;319;48.764;9.174;2022-12-29T00:35:23;8.20;;;8.00;;
673;SDS011;319;48.764;9.174;2022-12-29T00:37:53;7.70;;;7.50;;
673;SDS011;319;48.764;9.174;2022-12-29T00:40:39;7.60;;;7.40;;
673;SDS011;319;48.764;9.174;2022-12-29T00:43:23;10.40;;;10.10;;
673;SDS011;319;48.764;9.174;2022-12-29T00:46:08;9.40;;;9.20;;
673;SDS011;319;48.764;9.174;2022-12-29T00:48:34;8.67;;;8.47;;
673;SDS011;319;48.764;9.174;2022-12-29T00:51:19;11.40;;;11.10;;
673;SDS011;319;48.764;9.174;2022-12-29T00:53:47;10.70;;;10.40;;
673;SDS011;319;48.764;9.174;2022-12-29T00:56:14;12.30;;;12.00;;
673;SDS011;319;48.764;9.174;2022-12-29T00:58:40;12.70;;;12.40;;
673;SDS011;319;48.764;9.174;2022-12-29T01:01:07;11.93;;;11.63;;
673;SDS011;319;48.764;9.174;2022-12-29T01:03:35;12.90;;;12.60;;
673;SDS011;319;48.764;9.174;2022-12-29T01:06:03;11.53;;;11.23;;
673;SDS011;319;48.764;9.174;2022-12-29T01:08:31;8.83;;;8.63;;
673;SDS011;319;48.764;9.174;2022-12-29T01:11:00;8.87;;;8.67;;
673;SDS011;319;48.764;9.174;2022-12-29T01:13:26;11.20;;;10.90;;
673;SDS011;319;48.764;9.174;2022-12-29T01:15:53;9.57;;;9.37;;
673;SDS011;319;48.764;9.174;2022-12-29T01:18:21;9.57;;;9.37;;
673;SDS011;319;48.764;9.174;2022-12-29T01:20:48;8.70;;;8.50;;
673;SDS011;319;48.764;9.174;2022-12-29T01:23:15;8.50;;;8.30;;
673;SDS011;319;48.764;9.174;2022-12-29T01:25:42;8.20;;;8.00;;
673;SDS011;319;48.764;9.174;2022-12-29T01:28:10;8.60;;;8.40;;
673;SDS011;319;48.764;9.174;2022-12-29T01:30:36;8.80;;;8.60;;
673;SDS011;319;48.764;9.174;2022-12-29T01:33:03;8.70;;;8.50;;
673;SDS011;319;48.764;9.174;2022-12-29T01:35:30;8.60;;;8.40;;
673;SDS011;319;48.764;9.174;2022-12-29T01:37:57;7.80;;;7.60;;
673;SDS011;319;48.764;9.174;2022-12-29T01:40:24;7.90;;;7.70;;
673;SDS011;319;48.764;9.174;2022-12-29T01:42:51;7.80;;;7.60;;
673;SDS011;319;48.764;9.174;2022-12-29T01:45:19;7.70;;;7.50;;
673;SDS011;319;48.764;9.174;2022-12-29T01:47:47;7.57;;;7.37;;
673;SDS011;319;48.764;9.174;2022-12-29T01:50:16;7.67;;;7.47;;
673;SDS011;319;48.764;9.174;2022-12-29T01:52:48;7.60;;;7.40;;
673;SDS011;319;48.764;9.174;2022-12-29T01:55:19;12.20;;;11.90;;
673;SDS011;319;48.764;9.174;2022-12-29T01:57:47;10.50;;;10.20;;
673;SDS011;319;48.764;9.174;2022-12-29T02:00:18;12.50;;;12.20;;
673;SDS011;319;48.764;9.174;2022-12-29T02:02:46;13.00;;;12.70;;
673;SDS011;319;48.764;9.174;2022-12-29T02:05:19;11.70;;;11.40;;
673;SDS011;319;48.764;9.174;2022-12-29T02:07:50;13.10;;;12.70;;
673;SDS011;319;48.764;9.174;2022-12-29T02:10:19;13.50;;;13.10;;
673;SDS011;319;48.764;9.174;2022-12-29T02:12:47;13.17;;;12.77;;
673;SDS011;319;48.764;9.174;2022-12-29T02:15:14;13.20;;;12.80;;
673;SDS011;319;48.764;9.174;2022-12-29T02:17:48;13.50;;;13.10;;
673;SDS011;319;48.764;9.174;2022-12-29T02:26:40;12.80;;;12.50;;
673;SDS011;319;48.764;9.174;2022-12-29T02:32:15;13.10;;;12.70;;
673;SDS011;319;48.764;9.174;2022-12-29T02:34:51;13.00;;;12.70;;
673;SDS011;319;48.764;9.174;2022-12-29T02:37:24;12.80;;;12.50;;
673;SDS011;319;48.764;9.174;2022-12-29T02:39:57;13.20;;;12.80;;
673;SDS011;319;48.764;9.174;2022-12-29T02:42:33;12.70;;;12.40;;
673;SDS011;319;48.764;9.174;2022-12-29T02:45:04;12.40;;;12.10;;
673;SDS011;319;48.764;9.174;2022-12-29T02:47:37;12.80;;;12.50;;
673;SDS011;319;48.764;9.174;2022-12-29T02:50:08;13.30;;;12.90;;
673;SDS011;319;48.764;9.174;2022-12-29T02:52:42;12.90;;;12.60;;
673;SDS011;319;48.764;9.174;2022-12-29T02:55:12;13.00;;;12.70;;
673;SDS011;319;48.764;9.174;2022-12-29T02:57:38;12.70;;;12.40;;
673;SDS011;319;48.764;9.174;2022-12-29T03:00:05;12.30;;;12.00;;
673;SDS011;319;48.764;9.174;2022-12-29T03:02:40;12.40;;;12.10;;
673;SDS011;319;48.764;9.174;2022-12-29T03:05:22;12.30;;;12.00;;
673;SDS011;319;48.764;9.174;2022-12-29T03:08:03;12.90;;;12.60;;
673;SDS011;319;48.764;9.174;2022-12-29T03:10:38;13.50;;;13.10;;
673;SDS011;319;48.764;9.174;2022-12-29T03:13:16;13.30;;;12.90;;
673;SDS011;319;48.764;9.174;2022-12-29T03:16:12;12.90;;;12.60;;
673;SDS011;319;48.764;9.174;2022-12-29T03:18:49;12.77;;;12.47;;
673;SDS011;319;48.764;9.174;2022-12-29T03:21:24;13.23;;;12.83;;
673;SDS011;319;48.764;9.174;2022-12-29T03:24:11;12.50;;;12.20;;
673;SDS011;319;48.764;9.174;2022-12-29T03:26:39;12.37;;;12.07;;
673;SDS011;319;48.764;9.174;2022-12-29T03:29:08;12.00;;;11.70;;
673;SDS011;319;48.764;9.174;2022-12-29T03:31:37;12.10;;;11.80;;
673;SDS011;319;48.764;9.174;2022-12-29T03:34:06;11.97;;;11.67;;
673;SDS011;319;48.764;9.174;2022-12-29T03:36:35;13.03;;;12.73;;
673;SDS011;319;48.764;9.174;2022-12-29T03:39:08;12.90;;;12.60;;
673;SDS011;319;48.764;9.174;2022-12-29T03:41:37;12.57;;;12.27;;
673;SDS011;319;48.764;9.174;2022-12-29T03:44:07;12.60;;;12.30;;
673;SDS011;319;48.764;9.174;2022-12-29T03:46:34;13.27;;;12.90;;
673;SDS011;319;48.764;9.174;2022-12-29T03:49:01;10.60;;;10.30;;
673;SDS011;319;48.764;9.174;2022-12-29T03:51:29;9.30;;;9.10;;
673;SDS011;319;48.764;9.174;2022-12-29T03:53:56;8.93;;;8.73;;
673;SDS011;319;48.764;9.174;2022-12-29T03:56:23;9.13;;;8.93;;
673;SDS011;319;48.764;9.174;2022-12-29T03:58:49;8.90;;;8.70;;
673;SDS011;319;48.764;9.174;2022-12-29T04:01:16;8.80;;;8.60;;
673;SDS011;319;48.764;9.174;2022-12-29T04:03:43;10.30;;;10.00;;
673;SDS011;319;48.764;9.174;2022-12-29T04:06:09;9.87;;;9.67;;
673;SDS011;319;48.764;9.174;2022-12-29T04:08:37;10.60;;;10.30;;
673;SDS011;319;48.764;9.174;2022-12-29T04:11:04;10.60;;;10.30;;
673;SDS011;319;48.764;9.174;2022-12-29T04:13:31;9.97;;;9.77;;
673;SDS011;319;48.764;9.174;2022-12-29T04:15:58;10.80;;;10.50;;
673;SDS011;319;48.764;9.174;2022-12-29T04:18:25;11.00;;;10.70;;
673;SDS011;319;48.764;9.174;2022-12-29T04:20:51;10.90;;;10.60;;
673;SDS011;319;48.764;9.174;2022-12-29T04:23:28;11.30;;;11.00;;
673;SDS011;319;48.764;9.174;2022-12-29T04:25:58;10.90;;;10.60;;
673;SDS011;319;48.764;9.174;2022-12-29T04:28:25;10.47;;;10.17;;
673;SDS011;319;48.764;9.174;2022-12-29T04:30:52;10.70;;;10.40;;
673;SDS011;319;48.764;9.174;2022-12-29T04:33:19;10.70;;;10.40;;
673;SDS011;319;48.764;9.174;2022-12-29T04:35:46;10.77;;;10.47;;
673;SDS011;319;48.764;9.174;2022-12-29T04:38:13;10.53;;;10.23;;
673;SDS011;319;48.764;9.174;2022-12-29T04:40:41;9.37;;;9.17;;
673;SDS011;319;48.764;9.174;2022-12-29T04:43:10;9.33;;;9.13;;
673;SDS011;319;48.764;9.174;2022-12-29T04:45:38;10.00;;;9.80;;
673;SDS011;319;48.764;9.174;2022-12-29T04:48:08;9.60;;;9.40;;
673;SDS011;319;48.764;9.174;2022-12-29T04:50:35;9.63;;;9.43;;
673;SDS011;319;48.764;9.174;2022-12-29T04:53:02;9.23;;;9.03;;
673;SDS011;319;48.764;9.174;2022-12-29T04:55:29;8.90;;;8.70;;
673;SDS011;319;48.764;9.174;2022-12-29T04:57:57;9.47;;;9.27;;
673;SDS011;319;48.764;9.174;2022-12-29T05:00:25;9.30;;;9.10;;
673;SDS011;319;48.764;9.174;2022-12-29T05:02:52;9.30;;;9.10;;
673;SDS011;319;48.764;9.174;2022-12-29T05:05:18;9.60;;;9.40;;
673;SDS011;319;48.764;9.174;2022-12-29T05:07:45;8.70;;;8.50;;
673;SDS011;319;48.764;9.174;2022-12-29T05:10:12;8.80;;;8.60;;
673;SDS011;319;48.764;9.174;2022-12-29T05:12:39;9.93;;;9.73;;
673;SDS011;319;48.764;9.174;2022-12-29T05:15:06;10.40;;;10.10;;
673;SDS011;319;48.764;9.174;2022-12-29T05:17:36;9.73;;;9.53;;
673;SDS011;319;48.764;9.174;2022-12-29T05:20:03;10.90;;;10.60;;
673;SDS011;319;48.764;9.174;2022-12-29T05:22:31;9.90;;;9.70;;
673;SDS011;319;48.764;9.174;2022-12-29T05:24:58;9.50;;;9.30;;
673;SDS011;319;48.764;9.174;2022-12-29T05:27:24;9.70;;;9.50;;
673;SDS011;319;48.764;9.174;2022-12-29T05:29:51;9.90;;;9.70;;
673;SDS011;319;48.764;9.174;2022-12-29T05:32:18;10.30;;;10.00;;
673;SDS011;319;48.764;9.174;2022-12-29T05:34:46;10.40;;;10.10;;
673;SDS011;319;48.764;9.174;2022-12-29T05:37:13;10.20;;;9.90;;
673;SDS011;319;48.764;9.174;2022-12-29T05:39:39;9.30;;;9.10;;
673;SDS011;319;48.764;9.174;2022-12-29T05:42:06;9.63;;;9.43;;
673;SDS011;319;48.764;9.174;2022-12-29T05:44:33;9.50;;;9.30;;
673;SDS011;319;48.764;9.174;2022-12-29T05:47:00;9.90;;;9.70;;
673;SDS011;319;48.764;9.174;2022-12-29T05:49:26;9.90;;;9.70;;
673;SDS011;319;48.764;9.174;2022-12-29T05:51:55;10.50;;;10.20;;
673;SDS011;319;48.764;9.174;2022-12-29T05:54:21;10.50;;;10.20;;
673;SDS011;319;48.764;9.174;2022-12-29T05:56:48;10.67;;;10.37;;
673;SDS011;319;48.764;9.174;2022-12-29T05:59:15;10.20;;;9.93;;
673;SDS011;319;48.764;9.174;2022-12-29T06:01:42;10.63;;;10.33;;
673;SDS011;319;48.764;9.174;2022-12-29T06:04:08;9.90;;;9.70;;
673;SDS011;319;48.764;9.174;2022-12-29T06:06:35;10.30;;;10.00;;
673;SDS011;319;48.764;9.174;2022-12-29T06:09:03;9.60;;;9.40;;
673;SDS011;319;48.764;9.174;2022-12-29T06:11:30;11.00;;;10.70;;
673;SDS011;319;48.764;9.174;2022-12-29T06:13:56;11.30;;;11.00;;
673;SDS011;319;48.764;9.174;2022-12-29T06:16:23;11.60;;;11.30;;
673;SDS011;319;48.764;9.174;2022-12-29T06:18:50;10.10;;;9.80;;
673;SDS011;319;48.764;9.174;2022-12-29T06:21:17;10.40;;;10.10;;
673;SDS011;319;48.764;9.174;2022-12-29T06:23:44;10.73;;;10.43;;
673;SDS011;319;48.764;9.174;2022-12-29T06:26:12;10.40;;;10.10;;
673;SDS011;319;48.764;9.174;2022-12-29T06:28:38;10.33;;;10.03;;
673;SDS011;319;48.764;9.174;2022-12-29T06:31:08;10.70;;;10.40;;
673;SDS011;319;48.764;9.174;2022-12-29T06:33:35;11.10;;;10.80;;
673;SDS011;319;48.764;9.174;2022-12-29T06:36:02;11.10;;;10.80;;
673;SDS011;319;48.764;9.174;2022-12-29T06:38:29;11.33;;;11.03;;
673;SDS011;319;48.764;9.174;2022-12-29T06:40:55;11.37;;;11.07;;
673;SDS011;319;48.764;9.174;2022-12-29T06:43:23;9.80;;;9.60;;
673;SDS011;319;48.764;9.174;2022-12-29T06:45:50;11.33;;;11.03;;
673;SDS011;319;48.764;9.174;2022-12-29T06:48:17;10.40;;;10.10;;
673;SDS011;319;48.764;9.174;2022-12-29T06:50:44;11.50;;;11.20;;
673;SDS011;319;48.764;9.174;2022-12-29T06:53:10;10.63;;;10.33;;
673;SDS011;319;48.764;9.174;2022-12-29T06:55:37;11.40;;;11.10;;
673;SDS011;319;48.764;9.174;2022-12-29T06:58:04;11.50;;;11.20;;
673;SDS011;319;48.764;9.174;2022-12-29T07:00:32;11.33;;;11.03;;
673;SDS011;319;48.764;9.174;2022-12-29T07:02:59;11.60;;;11.30;;
673;SDS011;319;48.764;9.174;2022-12-29T07:05:26;11.27;;;10.97;;
673;SDS011;319;48.764;9.174;2022-12-29T07:07:53;10.60;;;10.30;;
673;SDS011;319;48.764;9.174;2022-12-29T07:10:20;11.40;;;11.10;;
673;SDS011;319;48.764;9.174;2022-12-29T07:12:47;11.30;;;11.00;;
673;SDS011;319;48.764;9.174;2022-12-29T07:15:14;10.63;;;10.33;;
673;SDS011;319;48.764;9.174;2022-12-29T07:17:43;11.10;;;10.80;;
673;SDS011;319;48.764;9.174;2022-12-29T07:20:10;10.17;;;9.90;;
673;SDS011;319;48.764;9.174;2022-12-29T07:22:37;10.57;;;10.27;;
673;SDS011;319;48.764;9.174;2022-12-29T07:25:04;11.60;;;11.30;;
673;SDS011;319;48.764;9.174;2022-12-29T07:27:31;11.37;;;11.07;;
673;SDS011;319;48.764;9.174;2022-12-29T07:29:58;11.10;;;10.80;;
673;SDS011;319;48.764;9.174;2022-12-29T07:32:24;10.93;;;10.63;;
673;SDS011;319;48.764;9.174;2022-12-29T07:34:52;11.50;;;11.20;;
673;SDS011;319;48.764;9.174;2022-12-29T07:37:19;10.80;;;10.50;;
673;SDS011;319;48.764;9.174;2022-12-29T07:39:46;11.00;;;10.70;;
673;SDS011;319;48.764;9.174;2022-12-29T07:42:12;10.63;;;10.33;;
673;SDS011;319;48.764;9.174;2022-12-29T07:44:39;11.07;;;10.77;;
673;SDS011;319;48.764;9.174;2022-12-29T07:47:06;10.07;;;9.87;;
673;SDS011;319;48.764;9.174;2022-12-29T07:49:33;10.30;;;10.00;;
673;SDS011;319;48.764;9.174;2022-12-29T07:52:01;11.27;;;10.97;;
673;SDS011;319;48.764;9.174;2022-12-29T07:54:27;11.30;;;11.00;;
673;SDS011;319;48.764;9.174;2022-12-29T07:56:54;11.37;;;11.07;;
673;SDS011;319;48.764;9.174;2022-12-29T07:59:22;10.50;;;10.20;;
673;SDS011;319;48.764;9.174;2022-12-29T08:01:49;11.90;;;11.60;;
673;SDS011;319;48.764;9.174;2022-12-29T08:04:16;11.40;;;11.10;;
673;SDS011;319;48.764;9.174;2022-12-29T08:06:42;11.67;;;11.37;;
673;SDS011;319;48.764;9.174;2022-12-29T08:09:12;10.23;;;9.93;;
673;SDS011;319;48.764;9.174;2022-12-29T08:11:38;11.23;;;10.93;;
673;SDS011;319;48.764;9.174;2022-12-29T08:14:07;10.67;;;10.37;;
673;SDS011;319;48.764;9.174;2022-12-29T08:16:35;11.30;;;11.00;;
673;SDS011;319;48.764;9.174;2022-12-29T08:19:15;10.43;;;10.13;;
673;SDS011;319;48.764;9.174;2022-12-29T08:21:42;11.30;;;11.00;;
673;SDS011;319;48.764;9.174;2022-12-29T08:24:09;11.30;;;11.00;;
673;SDS011;319;48.764;9.174;2022-12-29T08:26:37;11.40;;;11.10;;
673;SDS011;319;48.764;9.174;2022-12-29T08:29:04;10.97;;;10.67;;
673;SDS011;319;48.764;9.174;2022-12-29T08:31:31;11.40;;;11.10;;
673;SDS011;319;48.764;9.174;2022-12-29T08:33:58;10.67;;;10.37;;
673;SDS011;319;48.764;9.174;2022-12-29T08:36:26;9.80;;;9.60;;
673;SDS011;319;48.764;9.174;2022-12-29T08:38:53;8.03;;;7.83;;
673;SDS011;319;48.764;9.174;2022-12-29T08:41:19;8.70;;;8.50;;
673;SDS011;319;48.764;9.174;2022-12-29T08:43:47;8.27;;;8.07;;
673;SDS011;319;48.764;9.174;2022-12-29T08:46:15;11.47;;;11.17;;
673;SDS011;319;48.764;9.174;2022-12-29T08:48:42;12.03;;;11.73;;
673;SDS011;319;48.764;9.174;2022-12-29T08:51:09;12.50;;;12.20;;
673;SDS011;319;48.764;9.174;2022-12-29T08:53:36;13.10;;;12.70;;
673;SDS011;319;48.764;9.174;2022-12-29T08:56:03;13.70;;;13.30;;
673;SDS011;319;48.764;9.174;2022-12-29T08:58:30;13.60;;;13.20;;
673;SDS011;319;48.764;9.174;2022-12-29T09:00:59;13.30;;;12.90;;
673;SDS011;319;48.764;9.174;2022-12-29T09:03:26;11.50;;;11.20;;
673;SDS011;319;48.764;9.174;2022-12-29T09:05:53;13.80;;;13.40;;
673;SDS011;319;48.764;9.174;2022-12-29T09:08:21;13.50;;;13.10;;
673;SDS011;319;48.764;9.174;2022-12-29T09:10:48;14.40;;;14.00;;
673;SDS011;319;48.764;9.174;2022-12-29T09:13:15;14.27;;;13.87;;
673;SDS011;319;48.764;9.174;2022-12-29T09:15:42;14.67;;;14.27;;
673;SDS011;319;48.764;9.174;2022-12-29T09:18:10;13.67;;;13.27;;
673;SDS011;319;48.764;9.174;2022-12-29T09:20:38;14.83;;;14.43;;
673;SDS011;319;48.764;9.174;2022-12-29T09:23:04;13.03;;;12.67;;
673;SDS011;319;48.764;9.174;2022-12-29T09:25:32;10.90;;;10.60;;
673;SDS011;319;48.764;9.174;2022-12-29T09:27:59;9.60;;;9.40;;
673;SDS011;319;48.764;9.174;2022-12-29T09:30:29;10.80;;;10.50;;
673;SDS011;319;48.764;9.174;2022-12-29T09:32:55;9.53;;;9.33;;
673;SDS011;319;48.764;9.174;2022-12-29T09:35:23;9.20;;;9.00;;
673;SDS011;319;48.764;9.174;2022-12-29T09:37:50;8.93;;;8.73;;
673;SDS011;319;48.764;9.174;2022-12-29T09:40:22;9.40;;;9.20;;
673;SDS011;319;48.764;9.174;2022-12-29T09:42:55;9.53;;;9.33;;
673;SDS011;319;48.764;9.174;2022-12-29T09:45:36;9.00;;;8.80;;
673;SDS011;319;48.764;9.174;2022-12-29T09:48:11;8.50;;;8.30;;
673;SDS011;319;48.764;9.174;2022-12-29T09:50:46;17.03;;;16.63;;
673;SDS011;319;48.764;9.174;2022-12-29T09:53:16;9.70;;;9.50;;
673;SDS011;319;48.764;9.174;2022-12-29T09:55:50;9.43;;;9.23;;
673;SDS011;319;48.764;9.174;2022-12-29T09:58:21;14.57;;;14.17;;
673;SDS011;319;48.764;9.174;2022-12-29T10:00:53;17.10;;;16.60;;
673;SDS011;319;48.764;9.174;2022-12-29T10:03:24;14.20;;;13.80;;
673;SDS011;319;48.764;9.174;2022-12-29T10:06:00;15.53;;;15.13;;
673;SDS011;319;48.764;9.174;2022-12-29T10:08:37;11.30;;;11.00;;
673;SDS011;319;48.764;9.174;2022-12-29T10:11:07;9.90;;;9.70;;
673;SDS011;319;48.764;9.174;2022-12-29T10:13:43;9.00;;;8.80;;
673;SDS011;319;48.764;9.174;2022-12-29T10:16:24;11.00;;;10.70;;
673;SDS011;319;48.764;9.174;2022-12-29T10:19:00;10.90;;;10.60;;
673;SDS011;319;48.764;9.174;2022-12-29T10:21:39;11.70;;;11.40;;
673;SDS011;319;48.764;9.174;2022-12-29T10:24:18;14.57;;;14.17;;
673;SDS011;319;48.764;9.174;2022-12-29T10:26:47;15.60;;;15.20;;
673;SDS011;319;48.764;9.174;2022-12-29T10:29:18;14.10;;;13.70;;
673;SDS011;319;48.764;9.174;2022-12-29T10:31:47;17.77;;;17.27;;
673;SDS011;319;48.764;9.174;2022-12-29T10:34:20;17.23;;;16.73;;
673;SDS011;319;48.764;9.174;2022-12-29T10:36:53;16.47;;;15.97;;
673;SDS011;319;48.764;9.174;2022-12-29T10:39:26;14.50;;;14.10;;
673;SDS011;319;48.764;9.174;2022-12-29T10:42:26;16.67;;;16.17;;
673;SDS011;319;48.764;9.174;2022-12-29T10:45:07;16.90;;;16.40;;
673;SDS011;319;48.764;9.174;2022-12-29T10:47:47;13.30;;;13.00;;
673;SDS011;319;48.764;9.174;2022-12-29T10:50:19;14.60;;;14.20;;
673;SDS011;319;48.764;9.174;2022-12-29T10:52:49;12.70;;;12.40;;
673;SDS011;319;48.764;9.174;2022-12-29T10:55:19;14.93;;;14.53;;
673;SDS011;319;48.764;9.174;2022-12-29T10:57:49;16.40;;;15.90;;
673;SDS011;319;48.764;9.174;2022-12-29T11:00:17;16.37;;;15.87;;
673;SDS011;319;48.764;9.174;2022-12-29T11:02:57;18.10;;;17.60;;
673;SDS011;319;48.764;9.174;2022-12-29T11:05:39;17.40;;;16.90;;
673;SDS011;319;48.764;9.174;2022-12-29T11:08:14;16.87;;;16.37;;
673;SDS011;319;48.764;9.174;2022-12-29T11:10:43;18.70;;;18.20;;
673;SDS011;319;48.764;9.174;2022-12-29T11:13:14;16.90;;;16.40;;
673;SDS011;319;48.764;9.174;2022-12-29T11:15:46;18.20;;;17.70;;
673;SDS011;319;48.764;9.174;2022-12-29T11:18:18;16.40;;;15.90;;
673;SDS011;319;48.764;9.174;2022-12-29T11:20:47;17.00;;;16.50;;
673;SDS011;319;48.764;9.174;2022-12-29T11:23:24;17.53;;;17.03;;
673;SDS011;319;48.764;9.174;2022-12-29T11:29:03;14.90;;;14.50;;
673;SDS011;319;48.764;9.174;2022-12-29T11:31:45;17.60;;;17.10;;
673;SDS011;319;48.764;9.174;2022-12-29T11:34:16;16.97;;;16.47;;
673;SDS011;319;48.764;9.174;2022-12-29T11:36:45;16.60;;;16.10;;
673;SDS011;319;48.764;9.174;2022-12-29T11:40:25;15.43;;;15.03;;
673;SDS011;319;48.764;9.174;2022-12-29T11:42:53;17.20;;;16.70;;
673;SDS011;319;48.764;9.174;2022-12-29T11:45:22;15.83;;;15.33;;
673;SDS011;319;48.764;9.174;2022-12-29T11:47:52;13.47;;;13.07;;
673;SDS011;319;48.764;9.174;2022-12-29T11:50:54;15.40;;;15.00;;
673;SDS011;319;48.764;9.174;2022-12-29T12:04:30;14.97;;;14.57;;
673;SDS011;319;48.764;9.174;2022-12-29T12:07:03;14.47;;;14.07;;
673;SDS011;319;48.764;9.174;2022-12-29T12:09:39;13.30;;;12.90;;
673;SDS011;319;48.764;9.174;2022-12-29T12:12:09;14.60;;;14.20;;
673;SDS011;319;48.764;9.174;2022-12-29T12:14:50;14.80;;;14.40;;
673;SDS011;319;48.764;9.174;2022-12-29T12:17:25;14.60;;;14.20;;
673;SDS011;319;48.764;9.174;2022-12-29T12:20:04;14.80;;;14.40;;
673;SDS011;319;48.764;9.174;2022-12-29T12:22:42;14.23;;;13.83;;
673;SDS011;319;48.764;9.174;2022-12-29T12:25:16;15.20;;;14.80;;
673;SDS011;319;48.764;9.174;2022-12-29T12:27:47;14.80;;;14.40;;
673;SDS011;319;48.764;9.174;2022-12-29T12:30:19;15.10;;;14.70;;
673;SDS011;319;48.764;9.174;2022-12-29T12:32:48;14.80;;;14.40;;
673;SDS011;319;48.764;9.174;2022-12-29T12:35:23;15.17;;;14.77;;
673;SDS011;319;48.764;9.174;2022-12-29T12:38:11;14.33;;;13.93;;
673;SDS011;319;48.764;9.174;2022-12-29T12:40:51;15.20;;;14.80;;
673;SDS011;319;48.764;9.174;2022-12-29T12:43:31;14.90;;;14.50;;
673;SDS011;319;48.764;9.174;2022-12-29T12:46:07;14.70;;;14.30;;
673;SDS011;319;48.764;9.174;2022-12-29T12:49:03;13.90;;;13.50;;
673;SDS011;319;48.764;9.174;2022-12-29T12:51:47;13.90;;;13.50;;
673;SDS011;319;48.764;9.174;2022-12-29T12:54:27;14.20;;;13.80;;
673;SDS011;319;48.764;9.174;2022-12-29T12:57:05;13.53;;;13.13;;
673;SDS011;319;48.764;9.174;2022-12-29T12:59:42;13.20;;;12.83;;
673;SDS011;319;48.764;9.174;2022-12-29T13:02:25;13.60;;;13.20;;
673;SDS011;319;48.764;9.174;2022-12-29T13:05:05;13.27;;;12.90;;
673;SDS011;319;48.764;9.174;2022-12-29T13:07:49;13.27;;;12.87;;
673;SDS011;319;48.764;9.174;2022-12-29T13:10:28;14.00;;;13.60;;
673;SDS011;319;48.764;9.174;2022-12-29T13:13:09;13.90;;;13.50;;
673;SDS011;319;48.764;9.174;2022-12-29T13:15:52;13.90;;;13.50;;
673;SDS011;319;48.764;9.174;2022-12-29T13:18:29;13.93;;;13.53;;
673;SDS011;319;48.764;9.174;2022-12-29T13:21:05;12.43;;;12.13;;
673;SDS011;319;48.764;9.174;2022-12-29T13:23:41;14.00;;;13.60;;
673;SDS011;319;48.764;9.174;2022-12-29T13:26:12;14.37;;;13.97;;
673;SDS011;319;48.764;9.174;2022-12-29T13:28:47;12.93;;;12.63;;
673;SDS011;319;48.764;9.174;2022-12-29T13:31:20;13.40;;;13.00;;
673;SDS011;319;48.764;9.174;2022-12-29T13:33:58;14.00;;;13.60;;
673;SDS011;319;48.764;9.174;2022-12-29T13:36:33;13.97;;;13.57;;
673;SDS011;319;48.764;9.174;2022-12-29T13:39:07;12.63;;;12.33;;
673;SDS011;319;48.764;9.174;2022-12-29T13:41:39;13.80;;;13.40;;
673;SDS011;319;48.764;9.174;2022-12-29T13:44:09;14.20;;;13.80;;
673;SDS011;319;48.764;9.174;2022-12-29T13:46:43;13.73;;;13.33;;
673;SDS011;319;48.764;9.174;2022-12-29T13:49:12;13.10;;;12.77;;
673;SDS011;319;48.764;9.174;2022-12-29T13:51:44;13.67;;;13.27;;
673;SDS011;319;48.764;9.174;2022-12-29T13:54:21;13.60;;;13.20;;
673;SDS011;319;48.764;9.174;2022-12-29T13:57:02;13.90;;;13.50;;
673;SDS011;319;48.764;9.174;2022-12-29T13:59:36;12.67;;;12.37;;
673;SDS011;319;48.764;9.174;2022-12-29T14:02:13;13.80;;;13.40;;
673;SDS011;319;48.764;9.174;2022-12-29T14:04:57;13.90;;;13.50;;
673;SDS011;319;48.764;9.174;2022-12-29T14:07:25;13.60;;;13.20;;
673;SDS011;319;48.764;9.174;2022-12-29T14:09:55;13.70;;;13.30;;
673;SDS011;319;48.764;9.174;2022-12-29T14:12:32;14.00;;;13.60;;
673;SDS011;319;48.764;9.174;2022-12-29T14:15:04;13.53;;;13.13;;
673;SDS011;319;48.764;9.174;2022-12-29T14:17:32;13.57;;;13.17;;
673;SDS011;319;48.764;9.174;2022-12-29T14:19:59;12.80;;;12.50;;
673;SDS011;319;48.764;9.174;2022-12-29T14:22:26;12.80;;;12.50;;
673;SDS011;319;48.764;9.174;2022-12-29T14:24:55;12.60;;;12.30;;
673;SDS011;319;48.764;9.174;2022-12-29T14:30:46;12.80;;;12.50;;
673;SDS011;319;48.764;9.174;2022-12-29T14:33:15;13.80;;;13.40;;
673;SDS011;319;48.764;9.174;2022-12-29T14:35:43;12.40;;;12.10;;
673;SDS011;319;48.764;9.174;2022-12-29T14:38:15;12.43;;;12.13;;
673;SDS011;319;48.764;9.174;2022-12-29T14:40:46;13.10;;;12.70;;
673;SDS011;319;48.764;9.174;2022-12-29T14:43:16;12.73;;;12.43;;
673;SDS011;319;48.764;9.174;2022-12-29T14:45:51;14.07;;;13.67;;
673;SDS011;319;48.764;9.174;2022-12-29T14:48:22;12.00;;;11.70;;
673;SDS011;319;48.764;9.174;2022-12-29T14:51:16;13.87;;;13.47;;
673;SDS011;319;48.764;9.174;2022-12-29T14:53:54;13.67;;;13.27;;
673;SDS011;319;48.764;9.174;2022-12-29T14:56:25;13.80;;;13.40;;
673;SDS011;319;48.764;9.174;2022-12-29T14:58:54;12.77;;;12.47;;
673;SDS011;319;48.764;9.174;2022-12-29T15:01:24;14.37;;;13.97;;
673;SDS011;319;48.764;9.174;2022-12-29T15:04:00;12.70;;;12.40;;
673;SDS011;319;48.764;9.174;2022-12-29T15:06:33;14.70;;;14.30;;
673;SDS011;319;48.764;9.174;2022-12-29T15:09:10;12.70;;;12.40;;
673;SDS011;319;48.764;9.174;2022-12-29T15:11:47;14.80;;;14.40;;
673;SDS011;319;48.764;9.174;2022-12-29T15:14:30;12.90;;;12.60;;
673;SDS011;319;48.764;9.174;2022-12-29T15:17:00;14.50;;;14.10;;
673;SDS011;319;48.764;9.174;2022-12-29T15:19:28;12.97;;;12.67;;
673;SDS011;319;48.764;9.174;2022-12-29T15:21:55;14.67;;;14.27;;
673;SDS011;319;48.764;9.174;2022-12-29T15:24:23;15.03;;;14.63;;
673;SDS011;319;48.764;9.174;2022-12-29T15:26:52;13.40;;;13.00;;
673;SDS011;319;48.764;9.174;2022-12-29T15:29:33;13.43;;;13.03;;
673;SDS011;319;48.764;9.174;2022-12-29T15:32:15;14.40;;;14.00;;
673;SDS011;319;48.764;9.174;2022-12-29T15:34:44;14.50;;;14.10;;
673;SDS011;319;48.764;9.174;2022-12-29T15:37:16;14.43;;;14.03;;
673;SDS011;319;48.764;9.174;2022-12-29T15:39:44;13.70;;;13.30;;
673;SDS011;319;48.764;9.174;2022-12-29T15:42:16;13.53;;;13.13;;
673;SDS011;319;48.764;9.174;2022-12-29T15:44:55;14.20;;;13.80;;
673;SDS011;319;48.764;9.174;2022-12-29T15:47:23;14.20;;;13.80;;
673;SDS011;319;48.764;9.174;2022-12-29T15:49:53;12.97;;;12.67;;
673;SDS011;319;48.764;9.174;2022-12-29T15:52:27;13.90;;;13.50;;
673;SDS011;319;48.764;9.174;2022-12-29T15:54:54;13.30;;;12.90;;
673;SDS011;319;48.764;9.174;2022-12-29T15:57:23;14.10;;;13.70;;
673;SDS011;319;48.764;9.174;2022-12-29T15:59:51;13.70;;;13.30;;
673;SDS011;319;48.764;9.174;2022-12-29T16:02:18;13.80;;;13.40;;
673;SDS011;319;48.764;9.174;2022-12-29T16:04:46;13.70;;;13.30;;
673;SDS011;319;48.764;9.174;2022-12-29T16:07:24;14.00;;;13.60;;
673;SDS011;319;48.764;9.174;2022-12-29T16:09:54;14.30;;;13.90;;
673;SDS011;319;48.764;9.174;2022-12-29T16:12:24;14.80;;;14.40;;
673;SDS011;319;48.764;9.174;2022-12-29T16:14:56;13.20;;;12.80;;